sensor_id;sensor_type;location;lat;lon;timestamp;pressure;altitude;pressure_sealevel;temperature;humidity
6389;BME280;3227;42.654;23.360;2024-02-28T00:01:02;94753.56;;;11.88;73.01
6389;BME280;3227;42.654;23.360;2024-02-28T00:03:28;94763.81;;;11.86;73.44
6389;BME280;3227;42.654;23.360;2024-02-28T00:05:57;94701.38;;;11.55;73.66
6389;BME280;3227;42.654;23.360;2024-02-28T00:08:24;94735.63;;;11.77;73.44
6389;BME280;3227;42.654;23.360;2024-02-28T00:10:51;94747.59;;;11.84;73.35
6389;BME280;3227;42.654;23.360;2024-02-28T00:13:17;94724.47;;;11.66;73.63
6389;BME280;3227;42.654;23.360;2024-02-28T00:15:47;94762.13;;;11.87;73.58
6389;BME280;3227;42.654;23.360;2024-02-28T00:18:13;94767.28;;;11.85;74.13
6389;BME280;3227;42.654;23.360;2024-02-28T00:20:40;94759.59;;;11.77;74.37
6389;BME280;3227;42.654;23.360;2024-02-28T00:23:07;94768.97;;;11.83;74.22
6389;BME280;3227;42.654;23.360;2024-02-28T00:25:33;94761.28;;;11.83;73.79
6389;BME280;3227;42.654;23.360;2024-02-28T00:28:00;94680.88;;;11.37;73.25
6389;BME280;3227;42.654;23.360;2024-02-28T00:30:27;94757.88;;;11.86;73.46
6389;BME280;3227;42.654;23.360;2024-02-28T00:32:55;94757.00;;;11.79;72.51
6389;BME280;3227;42.654;23.360;2024-02-28T00:35:22;94762.09;;;11.64;73.54
6389;BME280;3227;42.654;23.360;2024-02-28T00:37:48;94762.09;;;11.53;73.23
6389;BME280;3227;42.654;23.360;2024-02-28T00:40:15;94759.56;;;11.50;73.03
6389;BME280;3227;42.654;23.360;2024-02-28T00:42:52;94760.41;;;11.48;73.22
6389;BME280;3227;42.654;23.360;2024-02-28T00:45:18;94756.13;;;11.45;73.70
6389;BME280;3227;42.654;23.360;2024-02-28T00:47:45;94745.03;;;11.44;73.35
6389;BME280;3227;42.654;23.360;2024-02-28T00:50:13;94758.72;;;11.53;73.27
6389;BME280;3227;42.654;23.360;2024-02-28T00:52:40;94732.16;;;11.37;74.02
6389;BME280;3227;42.654;23.360;2024-02-28T00:55:07;94758.72;;;11.53;74.02
6389;BME280;3227;42.654;23.360;2024-02-28T00:57:34;94757.81;;;11.54;73.55
6389;BME280;3227;42.654;23.360;2024-02-28T01:00:00;94711.66;;;11.32;73.88
6389;BME280;3227;42.654;23.360;2024-02-28T01:02:27;94770.66;;;11.57;74.54
6389;BME280;3227;42.654;23.360;2024-02-28T01:04:54;94765.53;;;11.55;74.72
6389;BME280;3227;42.654;23.360;2024-02-28T01:07:22;94779.22;;;11.56;73.64
6389;BME280;3227;42.654;23.360;2024-02-28T01:09:48;94768.97;;;11.50;73.53
6389;BME280;3227;42.654;23.360;2024-02-28T01:12:15;94768.97;;;11.53;74.63
6389;BME280;3227;42.654;23.360;2024-02-28T01:14:42;94686.00;;;11.00;73.71
6389;BME280;3227;42.654;23.360;2024-02-28T01:17:08;94761.28;;;11.42;74.18
6389;BME280;3227;42.654;23.360;2024-02-28T01:19:35;94767.25;;;11.42;74.63
6389;BME280;3227;42.654;23.360;2024-02-28T01:22:02;94764.66;;;11.38;74.37
6389;BME280;3227;42.654;23.360;2024-02-28T01:24:30;94769.81;;;11.32;74.30
6389;BME280;3227;42.654;23.360;2024-02-28T01:26:58;94779.22;;;11.25;74.83
6389;BME280;3227;42.654;23.360;2024-02-28T01:29:25;94774.94;;;11.23;74.31
6389;BME280;3227;42.654;23.360;2024-02-28T01:31:52;94767.22;;;11.18;74.37
6389;BME280;3227;42.654;23.360;2024-02-28T01:34:19;94772.34;;;11.14;74.53
6389;BME280;3227;42.654;23.360;2024-02-28T01:36:46;94768.91;;;11.01;75.03
6389;BME280;3227;42.654;23.360;2024-02-28T01:39:12;94752.63;;;10.82;74.83
6389;BME280;3227;42.654;23.360;2024-02-28T01:41:40;94782.56;;;10.97;74.88
6389;BME280;3227;42.654;23.360;2024-02-28T01:44:08;94782.59;;;10.94;75.29
6389;BME280;3227;42.654;23.360;2024-02-28T01:46:35;94791.09;;;10.90;75.59
6389;BME280;3227;42.654;23.360;2024-02-28T01:49:02;94755.13;;;10.64;75.48
6389;BME280;3227;42.654;23.360;2024-02-28T01:51:29;94781.66;;;10.80;75.94
6389;BME280;3227;42.654;23.360;2024-02-28T01:53:56;94787.66;;;10.80;75.22
6389;BME280;3227;42.654;23.360;2024-02-28T01:56:23;94743.16;;;10.58;75.32
6389;BME280;3227;42.654;23.360;2024-02-28T01:58:52;94793.63;;;10.76;75.85
6389;BME280;3227;42.654;23.360;2024-02-28T02:01:20;94787.63;;;10.70;76.12
6389;BME280;3227;42.654;23.360;2024-02-28T02:03:47;94791.00;;;10.62;75.97
6389;BME280;3227;42.654;23.360;2024-02-28T02:06:14;94782.47;;;10.59;75.82
6389;BME280;3227;42.654;23.360;2024-02-28T02:09:01;94792.72;;;10.66;75.57
6389;BME280;3227;42.654;23.360;2024-02-28T02:11:28;94787.63;;;10.66;75.69
6389;BME280;3227;42.654;23.360;2024-02-28T02:13:56;94780.78;;;10.68;76.21
6389;BME280;3227;42.654;23.360;2024-02-28T02:16:23;94781.66;;;10.74;75.79
6389;BME280;3227;42.654;23.360;2024-02-28T02:18:51;94783.38;;;10.75;76.27
6389;BME280;3227;42.654;23.360;2024-02-28T02:21:21;94783.34;;;10.72;76.07
6389;BME280;3227;42.654;23.360;2024-02-28T02:23:50;94776.53;;;10.71;75.05
6389;BME280;3227;42.654;23.360;2024-02-28T02:26:17;94780.78;;;10.68;75.24
6389;BME280;3227;42.654;23.360;2024-02-28T02:28:44;94782.50;;;10.66;75.04
6389;BME280;3227;42.654;23.360;2024-02-28T02:31:12;94746.50;;;10.33;75.48
6389;BME280;3227;42.654;23.360;2024-02-28T02:33:39;94785.88;;;10.59;75.63
6389;BME280;3227;42.654;23.360;2024-02-28T02:36:06;94767.91;;;10.56;74.90
6389;BME280;3227;42.654;23.360;2024-02-28T02:38:33;94785.88;;;10.62;74.75
6389;BME280;3227;42.654;23.360;2024-02-28T02:41:01;94782.47;;;10.63;75.65
6389;BME280;3227;42.654;23.360;2024-02-28T02:43:27;94787.63;;;10.66;74.83
6389;BME280;3227;42.654;23.360;2024-02-28T02:45:54;94785.03;;;10.65;75.20
6389;BME280;3227;42.654;23.360;2024-02-28T02:48:21;94786.72;;;10.52;75.29
6389;BME280;3227;42.654;23.360;2024-02-28T02:50:47;94784.09;;;10.37;76.92
6389;BME280;3227;42.654;23.360;2024-02-28T02:53:14;94789.06;;;10.13;78.26
6389;BME280;3227;42.654;23.360;2024-02-28T02:55:41;94781.41;;;10.17;78.41
6389;BME280;3227;42.654;23.360;2024-02-28T02:58:09;94717.03;;;9.58;79.04
6389;BME280;3227;42.654;23.360;2024-02-28T03:00:35;94789.88;;;10.10;78.45
6389;BME280;3227;42.654;23.360;2024-02-28T03:03:22;94791.63;;;10.13;78.76
6389;BME280;3227;42.654;23.360;2024-02-28T03:05:49;94788.88;;;9.90;79.99
6389;BME280;3227;42.654;23.360;2024-02-28T03:08:15;94792.41;;;10.06;79.17
6389;BME280;3227;42.654;23.360;2024-02-28T03:10:42;94781.34;;;10.10;79.05
6389;BME280;3227;42.654;23.360;2024-02-28T03:13:10;94787.28;;;10.06;80.03
6389;BME280;3227;42.654;23.360;2024-02-28T03:15:37;94785.56;;;10.02;79.54
6389;BME280;3227;42.654;23.360;2024-02-28T03:18:04;94782.09;;;9.97;80.34
6389;BME280;3227;42.654;23.360;2024-02-28T03:20:31;94781.13;;;9.75;81.76
6389;BME280;3227;42.654;23.360;2024-02-28T03:22:57;94786.28;;;9.79;81.92
6389;BME280;3227;42.654;23.360;2024-02-28T03:25:25;94790.59;;;9.89;80.86
6389;BME280;3227;42.654;23.360;2024-02-28T03:27:53;94763.03;;;9.52;82.01
6389;BME280;3227;42.654;23.360;2024-02-28T03:30:21;94795.59;;;9.74;81.55
6389;BME280;3227;42.654;23.360;2024-02-28T03:32:48;94792.97;;;9.62;82.33
6389;BME280;3227;42.654;23.360;2024-02-28T03:35:15;94797.19;;;9.54;82.85
6389;BME280;3227;42.654;23.360;2024-02-28T03:37:41;94796.38;;;9.61;82.72
6389;BME280;3227;42.654;23.360;2024-02-28T03:40:08;94804.13;;;9.70;82.18
6389;BME280;3227;42.654;23.360;2024-02-28T03:42:35;94796.44;;;9.72;82.46
6389;BME280;3227;42.654;23.360;2024-02-28T03:45:03;94710.75;;;9.15;82.52
6389;BME280;3227;42.654;23.360;2024-02-28T03:47:31;94809.16;;;9.64;83.04
6389;BME280;3227;42.654;23.360;2024-02-28T03:49:58;94810.78;;;9.51;84.12
6389;BME280;3227;42.654;23.360;2024-02-28T03:52:25;94783.31;;;9.31;83.84
6389;BME280;3227;42.654;23.360;2024-02-28T03:54:52;94806.50;;;9.46;84.38
6389;BME280;3227;42.654;23.360;2024-02-28T03:57:18;94811.63;;;9.50;84.71
6389;BME280;3227;42.654;23.360;2024-02-28T03:59:45;94814.19;;;9.50;83.78
6389;BME280;3227;42.654;23.360;2024-02-28T04:02:12;94802.13;;;9.39;84.73
6389;BME280;3227;42.654;23.360;2024-02-28T04:04:40;94801.44;;;9.57;83.68
6389;BME280;3227;42.654;23.360;2024-02-28T04:07:06;94807.53;;;9.69;82.43
6389;BME280;3227;42.654;23.360;2024-02-28T04:09:33;94802.44;;;9.75;82.79
6389;BME280;3227;42.654;23.360;2024-02-28T04:12:00;94799.09;;;9.84;82.85
6389;BME280;3227;42.654;23.360;2024-02-28T04:14:27;94796.59;;;9.91;82.31
6389;BME280;3227;42.654;23.360;2024-02-28T04:16:53;94797.50;;;10.00;82.89
6389;BME280;3227;42.654;23.360;2024-02-28T04:19:20;94794.97;;;10.07;82.03
6389;BME280;3227;42.654;23.360;2024-02-28T04:21:48;94777.03;;;10.03;81.98
6389;BME280;3227;42.654;23.360;2024-02-28T04:24:15;94799.22;;;10.04;81.60
6389;BME280;3227;42.654;23.360;2024-02-28T04:26:42;94795.81;;;10.02;80.60
6389;BME280;3227;42.654;23.360;2024-02-28T04:29:08;94795.69;;;9.83;81.69
6389;BME280;3227;42.654;23.360;2024-02-28T04:31:39;94801.50;;;9.64;82.31
6389;BME280;3227;42.654;23.360;2024-02-28T04:34:05;94794.56;;;9.46;84.04
6389;BME280;3227;42.654;23.360;2024-02-28T04:36:32;94789.47;;;9.51;84.07
6389;BME280;3227;42.654;23.360;2024-02-28T04:39:00;94797.13;;;9.51;84.66
6389;BME280;3227;42.654;23.360;2024-02-28T04:41:29;94794.69;;;9.65;84.47
6389;BME280;3227;42.654;23.360;2024-02-28T04:43:56;94788.66;;;9.58;84.80
6389;BME280;3227;42.654;23.360;2024-02-28T04:46:22;94794.72;;;9.68;83.60
6389;BME280;3227;42.654;23.360;2024-02-28T04:48:49;94804.00;;;9.55;85.25
6389;BME280;3227;42.654;23.360;2024-02-28T04:51:16;94725.91;;;8.94;85.60
6389;BME280;3227;42.654;23.360;2024-02-28T04:53:43;94805.50;;;9.30;86.86
6389;BME280;3227;42.654;23.360;2024-02-28T04:56:11;94693.25;;;8.65;86.61
6389;BME280;3227;42.654;23.360;2024-02-28T04:58:37;94779.00;;;9.25;85.98
6389;BME280;3227;42.654;23.360;2024-02-28T05:01:04;94765.31;;;9.17;86.38
6389;BME280;3227;42.654;23.360;2024-02-28T05:03:31;94812.38;;;9.37;85.98
6389;BME280;3227;42.654;23.360;2024-02-28T05:05:58;94811.59;;;9.44;85.17
6389;BME280;3227;42.654;23.360;2024-02-28T05:08:24;94811.47;;;9.32;86.04
6389;BME280;3227;42.654;23.360;2024-02-28T05:10:52;94799.34;;;9.14;85.99
6389;BME280;3227;42.654;23.360;2024-02-28T05:13:30;94821.72;;;9.34;86.05
6389;BME280;3227;42.654;23.360;2024-02-28T05:15:57;94814.94;;;9.37;85.13
6389;BME280;3227;42.654;23.360;2024-02-28T05:18:24;94832.13;;;9.53;84.46
6389;BME280;3227;42.654;23.360;2024-02-28T05:20:50;94822.75;;;9.55;84.40
6389;BME280;3227;42.654;23.360;2024-02-28T05:23:17;94825.44;;;9.69;83.51
6389;BME280;3227;42.654;23.360;2024-02-28T05:25:44;94821.22;;;9.77;84.08
6389;BME280;3227;42.654;23.360;2024-02-28T05:28:09;94838.31;;;9.78;83.80
6389;BME280;3227;42.654;23.360;2024-02-28T05:30:37;94842.63;;;9.88;82.88
6389;BME280;3227;42.654;23.360;2024-02-28T05:33:04;94842.66;;;9.91;82.96
6389;BME280;3227;42.654;23.360;2024-02-28T05:35:31;94850.41;;;10.05;82.46
6389;BME280;3227;42.654;23.360;2024-02-28T05:37:58;94853.72;;;9.90;83.32
6389;BME280;3227;42.654;23.360;2024-02-28T05:40:25;94853.03;;;10.14;82.08
6389;BME280;3227;42.654;23.360;2024-02-28T05:42:54;94853.25;;;10.37;80.97
6389;BME280;3227;42.654;23.360;2024-02-28T05:45:21;94858.47;;;10.63;80.54
6389;BME280;3227;42.654;23.360;2024-02-28T05:47:49;94862.84;;;10.81;79.78
6389;BME280;3227;42.654;23.360;2024-02-28T05:50:16;94866.31;;;10.96;77.70
6389;BME280;3227;42.654;23.360;2024-02-28T05:52:42;94863.84;;;11.18;76.91
6389;BME280;3227;42.654;23.360;2024-02-28T05:55:09;94858.75;;;11.36;75.56
6389;BME280;3227;42.654;23.360;2024-02-28T05:57:36;94870.75;;;11.44;73.34
6389;BME280;3227;42.654;23.360;2024-02-28T06:00:03;94872.44;;;11.41;73.76
6389;BME280;3227;42.654;23.360;2024-02-28T06:02:35;94882.72;;;11.55;73.00
6389;BME280;3227;42.654;23.360;2024-02-28T06:05:04;94846.78;;;11.53;72.08
6389;BME280;3227;42.654;23.360;2024-02-28T06:07:31;94880.25;;;12.09;71.42
6389;BME280;3227;42.654;23.360;2024-02-28T06:09:58;94886.19;;;12.46;69.93
6389;BME280;3227;42.654;23.360;2024-02-28T06:12:25;94886.09;;;12.89;68.06
6389;BME280;3227;42.654;23.360;2024-02-28T06:14:51;94878.22;;;13.27;66.50
6389;BME280;3227;42.654;23.360;2024-02-28T06:17:20;94887.53;;;13.58;64.48
6389;BME280;3227;42.654;23.360;2024-02-28T06:19:46;94896.00;;;13.74;63.25
6389;BME280;3227;42.654;23.360;2024-02-28T06:22:15;94904.50;;;13.84;63.22
6389;BME280;3227;42.654;23.360;2024-02-28T06:24:43;94895.78;;;14.03;62.47
6389;BME280;3227;42.654;23.360;2024-02-28T06:27:10;94896.50;;;14.22;61.26
6389;BME280;3227;42.654;23.360;2024-02-28T06:29:38;94816.06;;;13.88;60.84
6389;BME280;3227;42.654;23.360;2024-02-28T06:32:05;94873.19;;;14.34;60.58
6389;BME280;3227;42.654;23.360;2024-02-28T06:34:32;94908.13;;;14.68;59.65
6389;BME280;3227;42.654;23.360;2024-02-28T06:36:58;94907.88;;;14.94;59.87
6389;BME280;3227;42.654;23.360;2024-02-28T06:39:26;94903.31;;;15.16;58.50
6389;BME280;3227;42.654;23.360;2024-02-28T06:41:53;94745.16;;;14.34;57.60
6389;BME280;3227;42.654;23.360;2024-02-28T06:44:20;94851.44;;;15.34;57.57
6389;BME280;3227;42.654;23.360;2024-02-28T06:46:47;94910.97;;;15.91;56.66
6389;BME280;3227;42.654;23.360;2024-02-28T06:49:13;94906.28;;;16.16;56.17
6389;BME280;3227;42.654;23.360;2024-02-28T06:51:41;94905.25;;;16.27;56.00
6389;BME280;3227;42.654;23.360;2024-02-28T06:54:08;94905.94;;;16.37;55.25
6389;BME280;3227;42.654;23.360;2024-02-28T06:56:37;94904.16;;;16.39;54.82
6389;BME280;3227;42.654;23.360;2024-02-28T06:59:03;94889.69;;;16.30;55.36
6389;BME280;3227;42.654;23.360;2024-02-28T07:01:32;94908.38;;;16.46;55.33
6389;BME280;3227;42.654;23.360;2024-02-28T07:03:59;94906.56;;;16.51;54.41
6389;BME280;3227;42.654;23.360;2024-02-28T07:06:25;94911.84;;;16.47;53.64
6389;BME280;3227;42.654;23.360;2024-02-28T07:08:52;94909.56;;;16.25;55.00
6389;BME280;3227;42.654;23.360;2024-02-28T07:11:19;94886.63;;;16.06;56.62
6389;BME280;3227;42.654;23.360;2024-02-28T07:13:48;94888.25;;;16.13;55.77
6389;BME280;3227;42.654;23.360;2024-02-28T07:16:15;94869.28;;;16.12;55.31
6389;BME280;3227;42.654;23.360;2024-02-28T07:18:41;94851.41;;;15.98;55.78
6389;BME280;3227;42.654;23.360;2024-02-28T07:21:08;94903.91;;;16.04;56.23
6389;BME280;3227;42.654;23.360;2024-02-28T07:23:35;94906.22;;;15.60;58.49
6389;BME280;3227;42.654;23.360;2024-02-28T07:26:04;94906.97;;;15.70;58.29
6389;BME280;3227;42.654;23.360;2024-02-28T07:28:31;94905.34;;;15.62;58.86
6389;BME280;3227;42.654;23.360;2024-02-28T07:30:59;94909.53;;;15.70;58.56
6389;BME280;3227;42.654;23.360;2024-02-28T07:33:26;94887.47;;;15.46;58.07
6389;BME280;3227;42.654;23.360;2024-02-28T07:35:53;94883.06;;;15.51;58.47
6389;BME280;3227;42.654;23.360;2024-02-28T07:38:19;94909.00;;;15.44;59.63
6389;BME280;3227;42.654;23.360;2024-02-28T07:40:47;94915.84;;;15.48;59.48
6389;BME280;3227;42.654;23.360;2024-02-28T07:43:14;94883.75;;;14.98;60.47
6389;BME280;3227;42.654;23.360;2024-02-28T07:45:41;94911.88;;;15.21;60.96
6389;BME280;3227;42.654;23.360;2024-02-28T07:48:09;94872.94;;;14.64;61.17
6389;BME280;3227;42.654;23.360;2024-02-28T07:50:35;94899.25;;;14.95;60.82
6389;BME280;3227;42.654;23.360;2024-02-28T07:53:03;94913.63;;;15.17;60.69
6389;BME280;3227;42.654;23.360;2024-02-28T07:55:30;94912.75;;;14.31;63.86
6389;BME280;3227;42.654;23.360;2024-02-28T07:57:57;94890.00;;;14.77;62.85
6389;BME280;3227;42.654;23.360;2024-02-28T08:00:23;94913.78;;;15.04;61.91
6389;BME280;3227;42.654;23.360;2024-02-28T08:02:50;94907.69;;;15.09;61.28
6389;BME280;3227;42.654;23.360;2024-02-28T08:05:18;94914.13;;;15.47;61.21
6389;BME280;3227;42.654;23.360;2024-02-28T08:07:45;94909.41;;;15.81;58.00
6389;BME280;3227;42.654;23.360;2024-02-28T08:10:12;94911.78;;;15.94;57.56
6389;BME280;3227;42.654;23.360;2024-02-28T08:12:39;94910.91;;;15.95;57.47
6389;BME280;3227;42.654;23.360;2024-02-28T08:15:06;94860.94;;;15.95;57.46
6389;BME280;3227;42.654;23.360;2024-02-28T08:17:33;94902.38;;;16.44;57.64
6389;BME280;3227;42.654;23.360;2024-02-28T08:19:59;94897.84;;;16.57;56.74
6389;BME280;3227;42.654;23.360;2024-02-28T08:22:27;94874.53;;;16.58;56.37
6389;BME280;3227;42.654;23.360;2024-02-28T08:24:54;94900.38;;;16.08;57.97
6389;BME280;3227;42.654;23.360;2024-02-28T08:27:20;94896.09;;;16.59;56.90
6389;BME280;3227;42.654;23.360;2024-02-28T08:29:48;94889.75;;;16.26;56.03
6389;BME280;3227;42.654;23.360;2024-02-28T08:32:15;94898.03;;;15.92;57.41
6389;BME280;3227;42.654;23.360;2024-02-28T08:34:43;94896.53;;;15.76;58.42
6389;BME280;3227;42.654;23.360;2024-02-28T08:37:11;94881.44;;;15.46;58.60
6389;BME280;3227;42.654;23.360;2024-02-28T08:39:39;94899.09;;;15.79;57.99
6389;BME280;3227;42.654;23.360;2024-02-28T08:42:06;94892.72;;;16.02;58.08
6389;BME280;3227;42.654;23.360;2024-02-28T08:44:33;94853.03;;;16.06;56.91
6389;BME280;3227;42.654;23.360;2024-02-28T08:46:59;94887.06;;;16.32;57.09
6389;BME280;3227;42.654;23.360;2024-02-28T08:49:26;94842.88;;;16.46;56.70
6389;BME280;3227;42.654;23.360;2024-02-28T08:51:53;94887.31;;;16.69;56.10
6389;BME280;3227;42.654;23.360;2024-02-28T08:54:22;94870.94;;;16.68;55.40
6389;BME280;3227;42.654;23.360;2024-02-28T08:56:50;94886.13;;;16.87;54.68
6389;BME280;3227;42.654;23.360;2024-02-28T08:59:17;94886.16;;;16.85;55.05
6389;BME280;3227;42.654;23.360;2024-02-28T09:01:44;94871.63;;;16.78;55.30
6389;BME280;3227;42.654;23.360;2024-02-28T09:04:10;94890.38;;;15.86;57.03
6389;BME280;3227;42.654;23.360;2024-02-28T09:06:37;94878.94;;;16.03;57.81
6389;BME280;3227;42.654;23.360;2024-02-28T09:09:04;94882.09;;;16.20;57.38
6389;BME280;3227;42.654;23.360;2024-02-28T09:11:30;94869.56;;;15.95;56.79
6389;BME280;3227;42.654;23.360;2024-02-28T09:13:59;94861.66;;;15.43;58.68
6389;BME280;3227;42.654;23.360;2024-02-28T09:16:25;94859.44;;;15.16;59.69
6389;BME280;3227;42.654;23.360;2024-02-28T09:18:52;94893.41;;;15.50;60.33
6389;BME280;3227;42.654;23.360;2024-02-28T09:21:19;94893.78;;;15.88;59.96
6389;BME280;3227;42.654;23.360;2024-02-28T09:23:45;94882.41;;;16.00;59.08
6389;BME280;3227;42.654;23.360;2024-02-28T09:26:12;94883.81;;;16.19;57.49
6389;BME280;3227;42.654;23.360;2024-02-28T09:28:39;94876.22;;;16.09;57.77
6389;BME280;3227;42.654;23.360;2024-02-28T09:31:07;94883.06;;;15.56;58.75
6389;BME280;3227;42.654;23.360;2024-02-28T09:33:34;94881.44;;;15.46;60.17
6389;BME280;3227;42.654;23.360;2024-02-28T09:36:02;94873.84;;;15.32;60.18
6389;BME280;3227;42.654;23.360;2024-02-28T09:38:28;94869.16;;;15.65;59.60
6389;BME280;3227;42.654;23.360;2024-02-28T09:40:57;94867.75;;;15.99;58.77
6389;BME280;3227;42.654;23.360;2024-02-28T09:43:28;94866.22;;;16.40;57.23
6389;BME280;3227;42.654;23.360;2024-02-28T09:45:59;94873.53;;;16.68;55.38
6389;BME280;3227;42.654;23.360;2024-02-28T09:48:28;94865.16;;;16.53;55.19
6389;BME280;3227;42.654;23.360;2024-02-28T09:50:56;94747.84;;;16.09;54.90
6389;BME280;3227;42.654;23.360;2024-02-28T09:53:28;94804.66;;;16.61;54.36
6389;BME280;3227;42.654;23.360;2024-02-28T09:55:58;94859.50;;;17.23;52.74
6389;BME280;3227;42.654;23.360;2024-02-28T09:58:36;94788.44;;;16.50;53.17
6389;BME280;3227;42.654;23.360;2024-02-28T10:01:10;94803.94;;;16.53;53.88
6389;BME280;3227;42.654;23.360;2024-02-28T10:03:40;94736.34;;;16.25;53.37
6389;BME280;3227;42.654;23.360;2024-02-28T10:06:12;94846.19;;;16.98;53.39
6389;BME280;3227;42.654;23.360;2024-02-28T10:08:43;94754.38;;;16.30;53.44
6389;BME280;3227;42.654;23.360;2024-02-28T10:11:17;94779.00;;;16.49;54.29
6389;BME280;3227;42.654;23.360;2024-02-28T10:13:44;94674.84;;;15.96;53.17
6389;BME280;3227;42.654;23.360;2024-02-28T10:16:11;94860.56;;;17.15;53.29
6389;BME280;3227;42.654;23.360;2024-02-28T10:18:43;94761.59;;;16.57;52.28
6389;BME280;3227;42.654;23.360;2024-02-28T10:21:10;94847.91;;;16.99;52.70
6389;BME280;3227;42.654;23.360;2024-02-28T10:23:38;94847.75;;;17.07;52.41
6389;BME280;3227;42.654;23.360;2024-02-28T10:26:08;94800.63;;;16.91;52.45
6389;BME280;3227;42.654;23.360;2024-02-28T10:28:36;94837.56;;;17.41;51.49
6389;BME280;3227;42.654;23.360;2024-02-28T10:31:03;94832.03;;;17.56;50.96
6389;BME280;3227;42.654;23.360;2024-02-28T10:33:31;94835.34;;;17.64;50.32
6389;BME280;3227;42.654;23.360;2024-02-28T10:36:00;94828.44;;;17.63;50.82
6389;BME280;3227;42.654;23.360;2024-02-28T10:38:27;94828.13;;;17.78;49.67
6389;BME280;3227;42.654;23.360;2024-02-28T10:40:55;94824.16;;;17.99;49.22
6389;BME280;3227;42.654;23.360;2024-02-28T10:43:23;94819.56;;;17.75;48.38
6389;BME280;3227;42.654;23.360;2024-02-28T10:45:52;94827.19;;;17.81;48.24
6389;BME280;3227;42.654;23.360;2024-02-28T10:48:21;94807.47;;;16.95;49.27
6389;BME280;3227;42.654;23.360;2024-02-28T10:50:50;94803.22;;;16.90;49.82
6389;BME280;3227;42.654;23.360;2024-02-28T10:53:21;94803.41;;;17.22;49.03
6389;BME280;3227;42.654;23.360;2024-02-28T10:55:49;94803.50;;;17.58;48.06
6389;BME280;3227;42.654;23.360;2024-02-28T10:58:18;94820.00;;;17.94;47.08
6389;BME280;3227;42.654;23.360;2024-02-28T11:00:48;94804.63;;;17.86;46.21
6389;BME280;3227;42.654;23.360;2024-02-28T11:03:17;94796.22;;;17.36;47.79
6389;BME280;3227;42.654;23.360;2024-02-28T11:05:45;94808.16;;;17.82;47.29
6389;BME280;3227;42.654;23.360;2024-02-28T11:08:22;94802.41;;;18.05;46.75
6389;BME280;3227;42.654;23.360;2024-02-28T11:10:55;94627.50;;;17.15;46.29
6389;BME280;3227;42.654;23.360;2024-02-28T11:13:22;94735.50;;;17.85;46.83
6389;BME280;3227;42.654;23.360;2024-02-28T11:15:49;94763.75;;;17.96;46.64
6389;BME280;3227;42.654;23.360;2024-02-28T11:18:16;94792.09;;;18.03;47.18
6389;BME280;3227;42.654;23.360;2024-02-28T11:20:42;94782.72;;;17.98;47.33
6389;BME280;3227;42.654;23.360;2024-02-28T11:23:12;94739.69;;;17.91;46.94
6389;BME280;3227;42.654;23.360;2024-02-28T11:25:41;94769.16;;;18.20;46.35
6389;BME280;3227;42.654;23.360;2024-02-28T11:28:08;94732.81;;;18.22;45.28
6389;BME280;3227;42.654;23.360;2024-02-28T11:30:35;94765.66;;;18.55;44.44
6389;BME280;3227;42.654;23.360;2024-02-28T11:33:02;94762.63;;;18.72;43.94
6389;BME280;3227;42.654;23.360;2024-02-28T11:35:30;94770.13;;;18.83;43.64
6389;BME280;3227;42.654;23.360;2024-02-28T11:37:56;94758.44;;;18.97;43.95
6389;BME280;3227;42.654;23.360;2024-02-28T11:40:23;94767.53;;;19.12;42.93
6389;BME280;3227;42.654;23.360;2024-02-28T11:42:54;94759.97;;;19.05;43.12
6389;BME280;3227;42.654;23.360;2024-02-28T11:45:21;94753.34;;;18.63;42.89
6389;BME280;3227;42.654;23.360;2024-02-28T11:47:48;94731.50;;;18.38;42.97
6389;BME280;3227;42.654;23.360;2024-02-28T11:50:15;94754.50;;;18.52;42.90
6389;BME280;3227;42.654;23.360;2024-02-28T11:52:48;94752.81;;;18.51;43.78
6389;BME280;3227;42.654;23.360;2024-02-28T11:55:15;94718.66;;;18.35;43.36
6389;BME280;3227;42.654;23.360;2024-02-28T11:57:42;94754.38;;;18.58;43.24
6389;BME280;3227;42.654;23.360;2024-02-28T12:00:11;94747.31;;;18.63;42.83
6389;BME280;3227;42.654;23.360;2024-02-28T12:02:40;94742.53;;;18.46;42.59
6389;BME280;3227;42.654;23.360;2024-02-28T12:05:07;94751.47;;;18.36;43.25
6389;BME280;3227;42.654;23.360;2024-02-28T12:07:34;94736.22;;;18.58;43.72
6389;BME280;3227;42.654;23.360;2024-02-28T12:10:01;94732.88;;;18.84;43.81
6389;BME280;3227;42.654;23.360;2024-02-28T12:12:28;94719.00;;;18.85;43.66
6389;BME280;3227;42.654;23.360;2024-02-28T12:14:58;94738.38;;;18.73;43.58
6389;BME280;3227;42.654;23.360;2024-02-28T12:17:29;94727.81;;;18.79;43.58
6389;BME280;3227;42.654;23.360;2024-02-28T12:19:55;94716.53;;;18.80;44.67
6389;BME280;3227;42.654;23.360;2024-02-28T12:22:22;94722.53;;;18.82;44.64
6389;BME280;3227;42.654;23.360;2024-02-28T12:24:49;94676.28;;;18.66;44.69
6389;BME280;3227;42.654;23.360;2024-02-28T12:27:16;94712.56;;;18.98;44.85
6389;BME280;3227;42.654;23.360;2024-02-28T12:29:42;94711.63;;;19.00;44.95
6389;BME280;3227;42.654;23.360;2024-02-28T12:32:09;94701.22;;;19.00;45.46
6389;BME280;3227;42.654;23.360;2024-02-28T12:34:38;94716.25;;;17.95;48.24
6389;BME280;3227;42.654;23.360;2024-02-28T12:37:05;94673.94;;;17.93;47.96
6389;BME280;3227;42.654;23.360;2024-02-28T12:39:32;94710.16;;;18.29;47.49
6389;BME280;3227;42.654;23.360;2024-02-28T12:42:00;94715.94;;;18.38;47.63
6389;BME280;3227;42.654;23.360;2024-02-28T12:44:27;94704.47;;;18.47;47.63
6389;BME280;3227;42.654;23.360;2024-02-28T12:46:54;94700.88;;;17.87;48.61
6389;BME280;3227;42.654;23.360;2024-02-28T12:49:21;94704.69;;;17.73;49.82
6389;BME280;3227;42.654;23.360;2024-02-28T12:51:49;94707.25;;;17.74;49.34
6389;BME280;3227;42.654;23.360;2024-02-28T12:54:16;94705.19;;;17.52;49.99
6389;BME280;3227;42.654;23.360;2024-02-28T12:56:44;94697.69;;;17.41;50.04
6389;BME280;3227;42.654;23.360;2024-02-28T12:59:12;94697.22;;;17.61;50.09
6389;BME280;3227;42.654;23.360;2024-02-28T13:01:39;94696.91;;;17.73;49.91
6389;BME280;3227;42.654;23.360;2024-02-28T13:04:06;94699.28;;;17.82;49.66
6389;BME280;3227;42.654;23.360;2024-02-28T13:06:33;94676.94;;;17.78;49.48
6389;BME280;3227;42.654;23.360;2024-02-28T13:09:01;94688.16;;;17.78;48.59
6389;BME280;3227;42.654;23.360;2024-02-28T13:11:37;94693.16;;;17.49;49.06
6389;BME280;3227;42.654;23.360;2024-02-28T13:14:04;94707.84;;;17.48;49.30